Time;durP1;ratioP1;P1;durP2;ratioP2;P2;SDS_P1;SDS_P2;PMS_P1;PMS_P2;Temp;Humidity;BMP_temperature;BMP_pressure;BME280_temperature;BME280_humidity;BME280_pressure;Samples;Min_cycle;Max_cycle;Signal;HPM_P1;HPM_P2
2022/08/15 00:01:01;;;;;;;19.00;15.10;;;;;;;21.00;79.03;99495.69;105055;1284;97885;-77
2022/08/15 00:03:39;;;;;;;19.50;16.90;;;;;;;21.00;79.19;99492.30;105203;1284;97901;-76
2022/08/15 00:06:35;;;;;;;22.70;15.30;;;;;;;20.99;79.19;99487.94;105294;1284;112529;-77
2022/08/15 00:09:14;;;;;;;21.80;15.20;;;;;;;20.98;79.27;99483.97;105238;1284;107899;-77
2022/08/15 00:11:49;;;;;;;18.70;15.10;;;;;;;20.97;79.40;99483.55;105162;1284;138917;-77
2022/08/15 00:14:26;;;;;;;18.30;16.40;;;;;;;20.96;79.36;99477.80;105224;1284;97878;-77
2022/08/15 00:17:09;;;;;;;19.10;15.80;;;;;;;20.96;79.31;99473.76;105150;1284;138702;-77
2022/08/15 00:19:44;;;;;;;20.10;15.60;;;;;;;20.95;79.36;99472.05;105452;1284;110509;-77
2022/08/15 00:22:17;;;;;;;24.30;16.60;;;;;;;20.94;79.40;99467.92;106332;1284;139985;-77
2022/08/15 00:24:52;;;;;;;19.60;15.70;;;;;;;20.92;79.24;99470.77;105296;1284;107823;-77
2022/08/15 00:27:25;;;;;;;18.90;15.70;;;;;;;20.90;79.38;99467.96;104933;1285;98077;-77
2022/08/15 00:30:02;;;;;;;18.70;16.40;;;;;;;20.91;79.44;99472.65;105090;1284;140382;-76
2022/08/15 00:32:37;;;;;;;20.30;16.20;;;;;;;20.89;79.64;99472.59;105251;1284;112623;-76
2022/08/15 00:35:40;;;;;;;21.80;16.00;;;;;;;20.89;79.54;99475.80;104920;1284;140422;-76
2022/08/15 00:38:29;;;;;;;24.30;16.60;;;;;;;20.89;79.81;99477.56;105260;1284;108872;-76
2022/08/15 00:44:11;;;;;;;18.60;16.40;;;;;;;20.87;79.73;99479.00;106442;1285;95914;-76
2022/08/15 00:46:49;;;;;;;20.30;16.50;;;;;;;20.86;79.89;99479.11;106344;1283;139343;-77
2022/08/15 00:49:22;;;;;;;23.00;17.20;;;;;;;20.84;80.00;99480.98;105153;1284;107865;-76
2022/08/15 00:51:59;;;;;;;21.90;16.00;;;;;;;20.84;79.97;99484.72;105073;1284;140541;-76
2022/08/15 00:54:35;;;;;;;22.40;17.30;;;;;;;20.84;80.15;99483.48;105235;1284;98310;-76
2022/08/15 00:57:32;;;;;;;20.10;16.80;;;;;;;20.83;80.09;99482.48;105027;1284;97857;-77
2022/08/15 01:00:28;;;;;;;25.20;17.40;;;;;;;20.80;79.96;99482.77;105270;1284;112881;-77
2022/08/15 01:03:09;;;;;;;21.00;17.80;;;;;;;20.77;80.02;99484.95;105085;1284;109319;-76
2022/08/15 01:05:50;;;;;;;20.00;17.50;;;;;;;20.76;80.16;99480.79;104927;1284;140517;-76
2022/08/15 01:08:26;;;;;;;21.90;18.00;;;;;;;20.75;80.08;99481.59;105215;1284;97867;-76
2022/08/15 01:11:19;;;;;;;23.70;17.90;;;;;;;20.74;80.24;99478.55;105085;1284;138591;-77
2022/08/15 01:13:55;;;;;;;24.70;18.10;;;;;;;20.71;80.35;99470.98;105231;1284;112350;-77
2022/08/15 01:16:47;;;;;;;21.30;17.40;;;;;;;20.69;80.44;99466.55;105004;1284;138857;-77
2022/08/15 01:19:24;;;;;;;22.30;17.80;;;;;;;20.67;80.49;99463.23;105216;1284;107885;-77
2022/08/15 01:22:33;;;;;;;21.60;17.60;;;;;;;20.67;80.64;99461.30;105072;1284;139299;-78
2022/08/15 01:25:10;;;;;;;20.90;16.90;;;;;;;20.68;80.67;99460.17;105033;1284;97909;-77
2022/08/15 01:28:06;;;;;;;19.20;16.50;;;;;;;20.68;80.71;99454.63;104925;1284;138873;-78
2022/08/15 01:30:41;;;;;;;21.90;17.80;;;;;;;20.68;80.73;99450.64;105280;1284;108770;-77
2022/08/15 01:33:37;;;;;;;20.30;17.70;;;;;;;20.68;80.71;99458.41;105039;1285;108729;-77
2022/08/15 01:36:13;;;;;;;21.40;18.40;;;;;;;20.68;80.81;99453.82;105069;1285;97932;-77
2022/08/15 01:39:13;;;;;;;21.90;17.50;;;;;;;20.66;80.83;99455.56;105225;1284;97752;-76
2022/08/15 01:41:55;;;;;;;21.10;18.20;;;;;;;20.63;80.90;99456.14;105409;1284;140283;-77
2022/08/15 01:44:35;;;;;;;21.00;17.80;;;;;;;20.62;81.08;99461.89;105267;1284;108927;-77
2022/08/15 01:47:26;;;;;;;20.50;17.70;;;;;;;20.62;81.20;99462.81;106372;1284;138830;-77
2022/08/15 01:50:07;;;;;;;24.10;18.70;;;;;;;20.62;81.14;99460.48;105128;1284;97880;-76
2022/08/15 01:52:50;;;;;;;26.60;17.60;;;;;;;20.61;81.13;99461.96;105193;1284;140067;-77
2022/08/15 01:55:50;;;;;;;24.80;18.40;;;;;;;20.61;81.01;99465.52;105186;1284;112049;-77
2022/08/15 01:58:29;;;;;;;24.40;18.60;;;;;;;20.60;81.15;99467.04;104939;1284;138875;-77
2022/08/15 02:01:06;;;;;;;24.50;18.50;;;;;;;20.60;81.16;99464.54;105182;1284;109156;-77
2022/08/15 02:03:41;;;;;;;20.00;17.80;;;;;;;20.59;81.34;99465.70;105843;1284;139071;-77
2022/08/15 02:06:27;;;;;;;19.70;17.40;;;;;;;20.58;81.40;99467.20;105035;1284;97978;-76
2022/08/15 02:09:17;;;;;;;21.00;18.70;;;;;;;20.59;81.39;99464.99;105265;1284;112790;-77
2022/08/15 02:12:12;;;;;;;20.60;18.40;;;;;;;20.59;81.28;99455.61;105223;1284;108228;-76
2022/08/15 02:15:12;;;;;;;23.50;18.30;;;;;;;20.60;81.59;99450.89;105254;1284;107599;-76
2022/08/15 02:17:45;;;;;;;22.60;18.10;;;;;;;20.61;81.65;99449.45;106326;1284;139097;-77
2022/08/15 02:20:19;;;;;;;23.30;18.40;;;;;;;20.62;81.67;99447.63;106642;1282;96065;-76
2022/08/15 02:22:57;;;;;;;27.00;18.80;;;;;;;20.62;81.55;99446.02;104919;1286;141529;-76
2022/08/15 02:25:29;;;;;;;24.20;18.30;;;;;;;20.61;81.51;99444.11;105307;1284;110290;-76
2022/08/15 02:28:08;;;;;;;22.10;18.70;;;;;;;20.61;81.65;99438.98;106459;1282;139860;-76
2022/08/15 02:31:07;;;;;;;23.70;18.50;;;;;;;20.61;81.66;99435.34;106593;1282;96211;-76
2022/08/15 02:33:43;;;;;;;22.00;18.30;;;;;;;20.60;81.78;99432.38;106497;1283;138836;-76
2022/08/15 02:36:19;;;;;;;23.80;18.40;;;;;;;20.60;81.60;99440.48;106481;1284;112395;-77
2022/08/15 02:39:08;;;;;;;20.70;18.60;;;;;;;20.60;81.60;99441.41;106553;1284;109223;-77
2022/08/15 02:41:44;;;;;;;25.70;18.10;;;;;;;20.61;81.65;99442.05;105133;1284;139217;-76
2022/08/15 02:44:20;;;;;;;20.60;17.90;;;;;;;20.62;81.57;99437.54;105297;1284;97978;-76
2022/08/15 02:47:07;;;;;;;20.10;17.90;;;;;;;20.64;81.64;99439.31;105150;1284;139526;-76
2022/08/15 02:49:43;;;;;;;25.00;19.40;;;;;;;20.64;81.52;99435.38;105232;1284;112531;-76
2022/08/15 02:52:24;;;;;;;20.90;18.20;;;;;;;20.63;81.52;99432.89;104972;1284;139436;-76
2022/08/15 02:54:59;;;;;;;23.10;20.00;;;;;;;20.62;81.46;99423.23;105044;1284;108846;-77
2022/08/15 02:57:36;;;;;;;22.00;18.70;;;;;;;20.62;81.51;99419.36;105217;1284;97931;-76
2022/08/15 03:00:29;;;;;;;22.30;18.90;;;;;;;20.60;81.62;99419.64;105289;1283;97845;-76
2022/08/15 03:03:11;;;;;;;25.80;19.30;;;;;;;20.59;81.43;99419.79;105064;1284;112935;-77
2022/08/15 03:05:50;;;;;;;22.50;19.00;;;;;;;20.57;81.70;99419.77;105068;1284;138776;-77
2022/08/15 03:08:26;;;;;;;26.70;19.30;;;;;;;20.57;81.70;99421.02;105085;1284;109066;-77
2022/08/15 03:10:59;;;;;;;24.50;19.50;;;;;;;20.58;81.63;99422.33;105076;1284;139328;-77
2022/08/15 03:13:35;;;;;;;23.80;19.60;;;;;;;20.58;81.64;99419.85;105255;1284;97889;-77
2022/08/15 03:16:13;;;;;;;22.90;19.20;;;;;;;20.58;81.67;99424.79;104955;1284;139011;-77
2022/08/15 03:18:54;;;;;;;25.30;20.00;;;;;;;20.58;81.59;99424.95;104991;1287;108709;-76
2022/08/15 03:21:28;;;;;;;23.70;18.50;;;;;;;20.59;81.55;99424.15;106635;1284;105577;-76
2022/08/15 03:24:04;;;;;;;22.40;19.90;;;;;;;20.56;81.61;99426.17;106219;1284;140044;-77
2022/08/15 03:26:37;;;;;;;22.60;18.30;;;;;;;20.57;81.60;99434.45;105233;1284;97862;-76
2022/08/15 03:29:21;;;;;;;23.20;18.90;;;;;;;20.56;81.61;99435.77;104975;1284;139500;-75
2022/08/15 03:31:56;;;;;;;24.50;20.20;;;;;;;20.55;81.61;99434.62;105299;1284;109101;-76
2022/08/15 03:34:28;;;;;;;21.60;19.10;;;;;;;20.54;81.62;99431.55;104922;1284;138989;-76
2022/08/15 03:37:03;;;;;;;21.60;17.80;;;;;;;20.53;81.66;99432.13;105250;1284;97826;-76
2022/08/15 03:39:37;;;;;;;23.40;19.30;;;;;;;20.52;81.69;99435.52;105264;1283;97882;-74
2022/08/15 03:42:13;;;;;;;25.40;19.70;;;;;;;20.51;81.77;99433.47;105115;1284;112625;-75
2022/08/15 03:44:50;;;;;;;24.60;20.50;;;;;;;20.51;81.94;99444.45;106654;1283;109011;-76
2022/08/15 03:47:24;;;;;;;27.70;20.40;;;;;;;20.48;81.84;99447.89;106136;1284;140514;-76
2022/08/15 03:49:57;;;;;;;25.20;20.00;;;;;;;20.46;81.86;99448.61;105356;1284;97967;-76
2022/08/15 03:52:56;;;;;;;21.00;18.80;;;;;;;20.43;81.94;99444.95;104966;1284;140093;-76
2022/08/15 03:55:30;;;;;;;22.90;19.50;;;;;;;20.40;82.14;99437.09;105099;1284;111378;-77
2022/08/15 03:58:04;;;;;;;24.10;19.00;;;;;;;20.38;82.27;99432.48;105136;1284;139361;-69
2022/08/15 04:00:44;;;;;;;21.80;19.40;;;;;;;20.36;82.59;99436.52;105627;1284;109557;-68
2022/08/15 04:03:28;;;;;;;21.10;19.00;;;;;;;20.32;82.61;99427.31;106463;1283;95985;-69
2022/08/15 04:06:01;;;;;;;;;;;;;;;20.32;82.56;99419.98;106428;1284;140556;-69
2022/08/15 04:08:39;;;;;;;27.00;18.80;;;;;;;20.33;82.78;99414.91;106662;1284;112301;-69
2022/08/15 04:11:33;;;;;;;22.20;18.20;;;;;;;20.36;82.57;99414.62;105391;1284;139129;-69
2022/08/15 04:14:17;;;;;;;;;;;;;;;20.43;82.38;99412.16;105524;1283;108136;-69
2022/08/15 04:17:06;;;;;;;20.40;18.30;;;;;;;20.49;82.41;99411.42;105319;1284;126831;-68
2022/08/15 04:19:50;;;;;;;21.30;17.70;;;;;;;20.58;82.37;99402.59;106610;1284;96625;-69
2022/08/15 04:22:43;;;;;;;21.60;18.80;;;;;;;20.67;82.30;99398.56;106536;1283;138651;-69
2022/08/15 04:25:36;;;;;;;20.30;18.20;;;;;;;20.77;82.12;99397.46;106554;1284;108979;-69
2022/08/15 04:28:18;;;;;;;20.30;17.90;;;;;;;20.87;81.97;99395.92;106408;1284;139159;-69
2022/08/15 04:31:03;;;;;;;21.20;18.60;;;;;;;20.97;81.66;99401.23;106504;1284;96335;-69
2022/08/15 04:33:36;;;;;;;21.80;17.90;;;;;;;21.05;81.53;99400.29;106446;1283;95824;-69
2022/08/15 04:36:30;;;;;;;23.10;17.80;;;;;;;21.19;81.18;99396.65;106433;1284;114288;-70
2022/08/15 04:39:06;;;;;;;21.30;18.00;;;;;;;21.31;80.84;99398.59;106011;1284;108843;-70
2022/08/15 04:42:03;;;;;;;19.90;17.00;;;;;;;21.44;80.28;99404.79;105326;1284;139320;-69
2022/08/15 04:44:39;;;;;;;18.30;16.50;;;;;;;21.56;80.05;99404.05;106612;1284;96677;-69
2022/08/15 04:47:16;;;;;;;18.20;16.30;;;;;;;21.72;79.38;99404.39;105599;1284;139407;-69
2022/08/15 04:49:49;;;;;;;19.60;16.80;;;;;;;21.87;78.94;99401.39;105369;1284;112029;-69
2022/08/15 04:52:23;;;;;;;19.10;16.10;;;;;;;21.99;78.69;99408.95;106373;1284;140971;-70
2022/08/15 04:54:58;;;;;;;17.90;15.20;;;;;;;22.22;78.05;99410.49;105432;1284;108657;-69
2022/08/15 04:57:37;;;;;;;19.60;15.30;;;;;;;22.62;77.47;99401.27;105023;1284;98033;-70
2022/08/15 05:00:18;;;;;;;20.40;15.50;;;;;;;23.15;76.65;99403.19;105184;1284;97759;-69
2022/08/15 05:03:13;;;;;;;16.80;14.70;;;;;;;23.70;75.40;99406.64;105235;1284;112762;-69
2022/08/15 05:05:51;;;;;;;18.40;15.10;;;;;;;24.15;73.48;99421.31;105051;1284;138865;-69
2022/08/15 05:08:31;;;;;;;18.40;14.00;;;;;;;24.53;71.63;99423.77;104917;1284;107789;-70
2022/08/15 05:11:17;;;;;;;15.80;14.10;;;;;;;24.99;70.38;99421.77;104800;1284;139085;-71
2022/08/15 05:13:55;;;;;;;16.20;14.10;;;;;;;25.62;69.71;99421.89;105121;1284;97837;-69
2022/08/15 05:16:33;;;;;;;14.60;13.20;;;;;;;26.38;68.56;99419.79;104918;1284;139039;-69
2022/08/15 05:19:08;;;;;;;15.50;13.30;;;;;;;27.09;67.43;99416.72;105351;1284;109162;-70
2022/08/15 05:21:41;;;;;;;14.40;12.50;;;;;;;27.80;66.47;99414.11;104970;1284;139619;-69
2022/08/15 05:24:15;;;;;;;17.40;13.10;;;;;;;28.47;63.74;99414.37;105047;1284;97924;-70
2022/08/15 05:27:00;;;;;;;18.20;12.40;;;;;;;29.09;61.81;99416.46;105245;1284;97981;-69
2022/08/15 05:29:35;;;;;;;13.70;12.30;;;;;;;29.64;60.12;99416.72;105169;1284;138533;-69
2022/08/15 05:32:12;;;;;;;15.20;11.90;;;;;;;30.17;58.75;99419.30;104904;1284;108794;-70
2022/08/15 05:34:50;;;;;;;17.50;11.90;;;;;;;30.79;58.14;99419.48;105136;1284;138454;-70
2022/08/15 05:37:25;;;;;;;16.20;11.50;;;;;;;31.07;56.21;99423.47;105419;1284;97883;-69
2022/08/15 05:40:15;;;;;;;13.60;11.40;;;;;;;30.99;54.78;99431.95;105144;1284;138195;-69
2022/08/15 05:43:05;;;;;;;13.90;12.60;;;;;;;30.40;53.91;99425.30;105347;1284;112461;-69
2022/08/15 05:45:47;;;;;;;16.00;12.20;;;;;;;29.62;54.49;99417.43;105218;1284;106020;-70
2022/08/15 05:48:29;;;;;;;14.50;12.50;;;;;;;28.87;54.50;99425.27;105259;1284;106900;-69
2022/08/15 05:51:16;;;;;;;17.20;13.60;;;;;;;28.09;55.87;99418.98;106618;1283;95988;-70
2022/08/15 05:54:03;;;;;;;15.00;13.40;;;;;;;27.51;56.69;99427.27;105560;1283;138569;-69
2022/08/15 05:56:46;;;;;;;16.00;14.20;;;;;;;26.94;57.60;99441.60;106583;1283;112505;-70
2022/08/15 05:59:20;;;;;;;16.10;14.20;;;;;;;26.33;58.31;99445.23;105716;1284;138828;-70
2022/08/15 06:01:59;;;;;;;17.80;13.60;;;;;;;25.84;59.20;99450.34;104962;1284;108882;-69
2022/08/15 06:04:56;;;;;;;15.60;13.50;;;;;;;25.20;60.23;99449.34;104963;1284;138836;-70
2022/08/15 06:07:30;;;;;;;16.50;14.20;;;;;;;24.85;61.48;99450.00;105019;1284;97959;-71
2022/08/15 06:10:28;;;;;;;15.90;14.30;;;;;;;24.61;62.43;99452.63;105208;1284;139135;-71
2022/08/15 06:13:13;;;;;;;16.80;15.00;;;;;;;24.60;63.21;99454.35;105397;1284;107817;-71
2022/08/15 06:15:58;;;;;;;16.60;14.30;;;;;;;25.21;63.31;99453.82;106393;1284;141635;-71
2022/08/15 06:18:36;;;;;;;19.00;13.70;;;;;;;26.12;61.62;99450.65;106559;1284;96713;-72
2022/08/15 06:21:15;;;;;;;16.30;14.10;;;;;;;26.81;60.95;99442.55;106620;1283;95881;-71
2022/08/15 06:24:02;;;;;;;15.10;13.60;;;;;;;28.06;59.06;99442.80;106019;1284;139456;-71
2022/08/15 06:26:50;;;;;;;21.80;13.20;;;;;;;29.18;57.20;99440.91;105564;1284;109001;-70
2022/08/15 06:29:45;;;;;;;18.20;12.80;;;;;;;29.86;55.39;99434.27;106461;1284;138430;-70
2022/08/15 06:32:29;;;;;;;17.90;12.20;;;;;;;30.98;54.14;99433.86;106385;1284;96551;-69
2022/08/15 06:35:13;;;;;;;14.60;11.70;;;;;;;31.97;52.24;99424.56;106544;1284;137972;-70
2022/08/15 06:37:52;;;;;;;14.80;11.60;;;;;;;32.99;50.45;99429.85;106575;1284;111796;-71
2022/08/15 06:40:46;;;;;;;12.90;11.60;;;;;;;33.50;49.25;99428.41;106009;1284;138210;-69
2022/08/15 06:43:24;;;;;;;13.10;11.70;;;;;;;33.96;48.39;99421.63;105671;1284;108836;-69
2022/08/15 06:46:18;;;;;;;14.80;11.40;;;;;;;33.75;47.34;99426.27;105127;1284;138236;-70
2022/08/15 06:49:14;;;;;;;13.60;12.20;;;;;;;32.84;46.03;99428.86;105195;1284;98722;-70
2022/08/15 06:51:50;;;;;;;13.30;12.00;;;;;;;31.62;47.50;99425.34;105336;1283;138275;-70
2022/08/15 06:54:27;;;;;;;14.70;13.20;;;;;;;30.94;48.44;99425.55;105276;1284;109834;-71
2022/08/15 06:57:48;;;;;;;16.10;12.40;;;;;;;30.20;49.53;99428.31;105168;1284;109150;-73
2022/08/15 07:00:35;;;;;;;15.60;12.40;;;;;;;30.83;50.00;99430.20;105285;1284;97864;-71
2022/08/15 07:03:22;;;;;;;15.90;12.60;;;;;;;31.49;48.37;99423.56;105880;1284;96557;-71
2022/08/15 07:05:58;;;;;;;13.80;12.00;;;;;;;31.28;48.01;99426.91;106521;1284;138420;-70
2022/08/15 07:08:44;;;;;;;15.10;12.50;;;;;;;30.87;49.11;99433.31;105459;1284;108963;-70
2022/08/15 07:11:22;;;;;;;15.30;12.60;;;;;;;30.66;48.87;99436.80;106449;1284;138759;-70
2022/08/15 07:14:12;;;;;;;16.00;13.20;;;;;;;30.91;49.05;99434.05;106539;1282;96115;-75
2022/08/15 07:17:03;;;;;;;16.00;12.40;;;;;;;31.57;48.37;99439.23;106510;1284;137843;-71
2022/08/15 07:19:37;;;;;;;13.90;12.60;;;;;;;31.49;48.15;99439.36;106649;1284;112526;-72
2022/08/15 07:22:24;;;;;;;15.90;13.20;;;;;;;30.95;48.58;99441.63;106299;1284;138958;-81
2022/08/15 07:25:12;;;;;;;18.70;13.20;;;;;;;30.35;49.50;99439.69;106600;1284;108933;-81
2022/08/15 07:27:57;;;;;;;17.70;13.30;;;;;;;29.91;50.28;99443.28;106477;1283;139011;-82
2022/08/15 07:30:45;;;;;;;19.50;13.60;;;;;;;29.42;50.50;99452.44;106492;1284;96210;-83
2022/08/15 07:33:37;;;;;;;15.80;14.00;;;;;;;28.80;51.61;99450.64;106673;1284;112666;-79
2022/08/15 07:36:24;;;;;;;19.20;13.90;;;;;;;28.25;52.34;99447.51;105430;1284;109034;-80
2022/08/15 07:39:23;;;;;;;15.80;14.00;;;;;;;27.79;53.47;99443.99;104953;1284;108930;-78
2022/08/15 07:42:19;;;;;;;15.70;14.10;;;;;;;27.30;54.18;99448.57;105212;1284;97876;-75
2022/08/15 07:45:18;;;;;;;19.60;14.90;;;;;;;26.90;55.35;99448.17;106622;1284;96248;-69
2022/08/15 07:48:01;;;;;;;20.80;14.60;;;;;;;26.68;56.00;99448.51;106403;1283;139347;-71
2022/08/15 07:50:42;;;;;;;15.70;14.10;;;;;;;26.62;56.38;99448.10;106564;1284;109908;-72
2022/08/15 07:53:22;;;;;;;16.40;14.60;;;;;;;26.71;56.68;99445.48;106064;1284;140055;-72
2022/08/15 07:56:12;;;;;;;16.10;14.40;;;;;;;26.80;56.57;99448.45;105536;1284;97904;-72
2022/08/15 07:59:20;;;;;;;21.80;14.30;;;;;;;26.75;56.91;99448.92;106533;1284;139707;-72
2022/08/15 08:02:21;;;;;;;17.80;13.70;;;;;;;26.55;57.06;99448.67;105848;1283;112332;-73
2022/08/15 08:05:12;;;;;;;20.30;16.00;;;;;;;26.22;57.56;99454.66;106448;1284;138786;-72
2022/08/15 08:08:00;;;;;;;16.20;14.60;;;;;;;25.80;58.31;99454.69;106574;1284;107922;-72
2022/08/15 08:10:39;;;;;;;16.90;14.80;;;;;;;25.50;59.17;99456.27;106421;1284;139043;-73
2022/08/15 08:13:35;;;;;;;19.20;15.60;;;;;;;25.30;59.94;99457.48;106443;1284;96270;-74
2022/08/15 08:16:22;;;;;;;16.00;14.30;;;;;;;25.24;60.60;99458.49;106496;1283;138755;-73
2022/08/15 08:19:09;;;;;;;16.00;14.40;;;;;;;25.23;60.75;99460.59;106554;1283;108221;-72
2022/08/15 08:21:51;;;;;;;20.10;14.40;;;;;;;25.27;61.09;99456.33;106396;1283;139085;-73
2022/08/15 08:24:33;;;;;;;18.00;15.80;;;;;;;25.44;60.96;99460.45;106498;1284;95898;-72
2022/08/15 08:27:22;;;;;;;16.70;14.30;;;;;;;25.70;61.01;99451.97;106552;1284;96057;-71
2022/08/15 08:30:03;;;;;;;18.00;14.30;;;;;;;25.89;60.54;99453.43;106496;1283;139684;-72
2022/08/15 08:32:59;;;;;;;17.60;13.80;;;;;;;26.10;59.74;99455.34;105657;1284;109428;-73
2022/08/15 08:35:41;;;;;;;17.40;13.20;;;;;;;26.13;59.16;99454.02;106504;1284;139474;-72
2022/08/15 08:38:28;;;;;;;20.30;13.70;;;;;;;26.08;59.14;99456.98;105806;1284;97878;-71
2022/08/15 08:41:36;;;;;;;15.70;13.50;;;;;;;26.03;59.40;99454.43;105057;1284;138655;-72
2022/08/15 08:44:29;;;;;;;15.20;13.50;;;;;;;26.05;59.52;99462.83;105964;1284;111707;-73
2022/08/15 08:47:17;;;;;;;18.50;13.70;;;;;;;26.01;59.42;99461.64;105571;1283;138853;-71
2022/08/15 08:50:03;;;;;;;18.60;14.80;;;;;;;26.04;59.75;99462.32;106642;1283;108210;-74
2022/08/15 08:53:06;;;;;;;17.60;14.40;;;;;;;26.08;60.21;99458.05;106550;1284;140633;-79
2022/08/15 08:55:49;;;;;;;16.20;14.50;;;;;;;26.12;60.18;99457.08;106671;1281;95997;-74
2022/08/15 08:58:28;;;;;;;16.70;14.20;;;;;;;26.07;60.00;99459.25;106464;1283;138890;-74
